sensor_id;sensor_type;location;lat;lon;timestamp;pressure;altitude;pressure_sealevel;temperature;humidity
78123;BME280;67376;44.802;10.332;2023-02-10T00:00:19;103108.53;;;16.34;33.98
78123;BME280;67376;44.802;10.332;2023-02-10T00:02:44;103111.94;;;16.36;34.02
78123;BME280;67376;44.802;10.332;2023-02-10T00:05:10;103103.00;;;16.35;33.82
78123;BME280;67376;44.802;10.332;2023-02-10T00:07:35;103107.69;;;16.33;34.12
78123;BME280;67376;44.802;10.332;2023-02-10T00:10:00;103105.16;;;16.32;34.34
78123;BME280;67376;44.802;10.332;2023-02-10T00:12:26;103101.75;;;16.30;34.35
78123;BME280;67376;44.802;10.332;2023-02-10T00:14:51;103094.97;;;16.26;34.31
78123;BME280;67376;44.802;10.332;2023-02-10T00:17:16;103100.75;;;16.31;34.68
78123;BME280;67376;44.802;10.332;2023-02-10T00:19:42;103099.59;;;16.33;34.60
78123;BME280;67376;44.802;10.332;2023-02-10T00:22:08;103105.75;;;16.26;34.84
78123;BME280;67376;44.802;10.332;2023-02-10T00:24:33;103102.06;;;16.27;34.60
78123;BME280;67376;44.802;10.332;2023-02-10T00:26:58;103099.34;;;16.27;34.75
78123;BME280;67376;44.802;10.332;2023-02-10T00:29:25;103098.81;;;16.23;34.12
78123;BME280;67376;44.802;10.332;2023-02-10T00:31:50;103097.66;;;16.26;34.85
78123;BME280;67376;44.802;10.332;2023-02-10T00:34:17;103098.66;;;16.25;34.27
78123;BME280;67376;44.802;10.332;2023-02-10T00:36:42;103094.13;;;16.25;34.93
78123;BME280;67376;44.802;10.332;2023-02-10T00:39:15;103088.56;;;16.27;33.83
78123;BME280;67376;44.802;10.332;2023-02-10T00:41:40;103088.03;;;16.23;34.13
78123;BME280;67376;44.802;10.332;2023-02-10T00:44:06;103083.88;;;16.29;34.62
78123;BME280;67376;44.802;10.332;2023-02-10T00:46:32;103088.88;;;16.24;34.93
78123;BME280;67376;44.802;10.332;2023-02-10T00:48:57;103085.63;;;16.20;33.95
78123;BME280;67376;44.802;10.332;2023-02-10T00:51:23;103077.09;;;16.25;33.91
78123;BME280;67376;44.802;10.332;2023-02-10T00:53:49;103081.63;;;16.24;34.19
78123;BME280;67376;44.802;10.332;2023-02-10T00:56:18;103085.47;;;16.22;34.93
78123;BME280;67376;44.802;10.332;2023-02-10T00:58:44;103088.19;;;16.22;34.88
78123;BME280;67376;44.802;10.332;2023-02-10T01:01:10;103081.56;;;16.16;34.14
78123;BME280;67376;44.802;10.332;2023-02-10T01:03:36;103078.88;;;16.16;34.71
78123;BME280;67376;44.802;10.332;2023-02-10T01:06:02;103084.09;;;16.17;34.40
78123;BME280;67376;44.802;10.332;2023-02-10T01:08:27;103067.91;;;16.17;34.49
78123;BME280;67376;44.802;10.332;2023-02-10T01:11:04;103078.88;;;16.16;34.55
78123;BME280;67376;44.802;10.332;2023-02-10T01:13:31;103067.91;;;16.17;34.06
78123;BME280;67376;44.802;10.332;2023-02-10T01:15:59;103076.84;;;16.18;33.94
78123;BME280;67376;44.802;10.332;2023-02-10T01:18:25;103068.94;;;16.16;34.93
78123;BME280;67376;44.802;10.332;2023-02-10T01:20:50;103070.78;;;16.16;34.83
78123;BME280;67376;44.802;10.332;2023-02-10T01:23:16;103067.00;;;16.09;34.76
78123;BME280;67376;44.802;10.332;2023-02-10T01:25:41;103064.00;;;16.12;33.99
78123;BME280;67376;44.802;10.332;2023-02-10T01:28:08;103065.69;;;16.13;34.90
78123;BME280;67376;44.802;10.332;2023-02-10T01:30:34;103065.59;;;16.05;34.35
78123;BME280;67376;44.802;10.332;2023-02-10T01:32:59;103069.53;;;16.10;34.86
78123;BME280;67376;44.802;10.332;2023-02-10T01:35:25;103067.00;;;16.09;34.65
78123;BME280;67376;44.802;10.332;2023-02-10T01:37:50;103066.31;;;16.07;34.44
78123;BME280;67376;44.802;10.332;2023-02-10T01:40:15;103064.31;;;16.09;35.21
78123;BME280;67376;44.802;10.332;2023-02-10T01:42:41;103056.91;;;16.11;34.02
78123;BME280;67376;44.802;10.332;2023-02-10T01:47:47;103047.88;;;16.02;34.69
78123;BME280;67376;44.802;10.332;2023-02-10T01:50:15;103057.06;;;16.09;34.43
78123;BME280;67376;44.802;10.332;2023-02-10T01:52:42;103049.28;;;16.06;34.35
78123;BME280;67376;44.802;10.332;2023-02-10T01:55:15;103042.91;;;16.07;34.11
78123;BME280;67376;44.802;10.332;2023-02-10T01:57:43;103042.75;;;16.09;34.98
78123;BME280;67376;44.802;10.332;2023-02-10T02:00:11;103040.22;;;16.07;34.10
78123;BME280;67376;44.802;10.332;2023-02-10T02:02:37;103034.97;;;16.06;34.90
78123;BME280;67376;44.802;10.332;2023-02-10T02:05:07;103037.25;;;16.01;34.26
78123;BME280;67376;44.802;10.332;2023-02-10T02:07:42;103039.50;;;16.05;33.88
78123;BME280;67376;44.802;10.332;2023-02-10T02:10:08;103040.41;;;15.96;34.58
78123;BME280;67376;44.802;10.332;2023-02-10T02:15:27;103042.50;;;16.02;33.92
78123;BME280;67376;44.802;10.332;2023-02-10T02:18:08;103041.50;;;16.03;34.86
78123;BME280;67376;44.802;10.332;2023-02-10T02:34:17;103023.16;;;15.89;34.23
78123;BME280;67376;44.802;10.332;2023-02-10T02:36:49;103021.53;;;15.96;34.26
78123;BME280;67376;44.802;10.332;2023-02-10T02:39:16;103015.63;;;15.93;33.90
78123;BME280;67376;44.802;10.332;2023-02-10T02:41:41;103010.06;;;15.94;33.87
78123;BME280;67376;44.802;10.332;2023-02-10T02:44:07;103003.00;;;15.93;34.35
78123;BME280;67376;44.802;10.332;2023-02-10T02:46:42;103005.00;;;15.91;34.44
78123;BME280;67376;44.802;10.332;2023-02-10T02:52:00;103003.00;;;15.93;34.58
78123;BME280;67376;44.802;10.332;2023-02-10T02:55:02;103002.44;;;15.90;35.26
78123;BME280;67376;44.802;10.332;2023-02-10T02:57:36;102997.59;;;15.93;34.60
78123;BME280;67376;44.802;10.332;2023-02-10T03:00:15;103002.28;;;15.91;34.66
78123;BME280;67376;44.802;10.332;2023-02-10T03:02:43;103004.69;;;15.94;34.16
78123;BME280;67376;44.802;10.332;2023-02-10T03:05:10;103004.13;;;15.91;35.21
78123;BME280;67376;44.802;10.332;2023-02-10T03:07:35;102998.06;;;15.89;34.52
78123;BME280;67376;44.802;10.332;2023-02-10T03:10:02;102995.50;;;15.87;34.43
78123;BME280;67376;44.802;10.332;2023-02-10T03:12:28;102999.59;;;15.91;35.42
78123;BME280;67376;44.802;10.332;2023-02-10T03:14:53;102991.28;;;15.84;34.30
78123;BME280;67376;44.802;10.332;2023-02-10T03:17:18;102987.34;;;15.79;35.01
78123;BME280;67376;44.802;10.332;2023-02-10T03:19:44;102993.97;;;15.84;35.19
78123;BME280;67376;44.802;10.332;2023-02-10T03:22:09;102993.13;;;15.84;34.61
78123;BME280;67376;44.802;10.332;2023-02-10T03:24:34;102987.34;;;15.79;35.00
78123;BME280;67376;44.802;10.332;2023-02-10T03:27:00;102999.91;;;15.88;34.45
78123;BME280;67376;44.802;10.332;2023-02-10T03:29:25;102976.31;;;15.72;34.55
78123;BME280;67376;44.802;10.332;2023-02-10T03:31:51;102989.72;;;15.82;34.38
78123;BME280;67376;44.802;10.332;2023-02-10T03:34:16;102993.25;;;15.82;35.00
78123;BME280;67376;44.802;10.332;2023-02-10T03:36:42;102998.22;;;15.87;35.22
78123;BME280;67376;44.802;10.332;2023-02-10T03:39:07;102992.28;;;15.83;35.15
78123;BME280;67376;44.802;10.332;2023-02-10T03:41:32;102985.63;;;15.78;34.32
78123;BME280;67376;44.802;10.332;2023-02-10T03:43:58;102987.19;;;15.80;34.86
78123;BME280;67376;44.802;10.332;2023-02-10T03:46:23;102997.81;;;15.82;34.65
78123;BME280;67376;44.802;10.332;2023-02-10T03:48:49;102990.88;;;15.79;34.58
78123;BME280;67376;44.802;10.332;2023-02-10T03:51:14;103000.94;;;15.77;33.92
78123;BME280;67376;44.802;10.332;2023-02-10T03:53:40;102997.25;;;15.78;35.55
78123;BME280;67376;44.802;10.332;2023-02-10T03:56:06;102995.56;;;15.77;35.63
78123;BME280;67376;44.802;10.332;2023-02-10T03:58:32;103011.56;;;15.79;34.52
78123;BME280;67376;44.802;10.332;2023-02-10T04:00:57;103005.63;;;15.75;34.49
78123;BME280;67376;44.802;10.332;2023-02-10T04:03:23;103007.34;;;15.76;34.50
78123;BME280;67376;44.802;10.332;2023-02-10T04:05:48;103006.03;;;15.80;34.41
78123;BME280;67376;44.802;10.332;2023-02-10T04:08:13;103008.47;;;15.74;35.07
78123;BME280;67376;44.802;10.332;2023-02-10T04:10:39;103012.16;;;15.73;35.09
78123;BME280;67376;44.802;10.332;2023-02-10T04:13:04;103011.03;;;15.75;34.49
78123;BME280;67376;44.802;10.332;2023-02-10T04:15:30;102996.00;;;15.73;34.62
78123;BME280;67376;44.802;10.332;2023-02-10T04:17:55;102998.16;;;15.69;35.52
78123;BME280;67376;44.802;10.332;2023-02-10T04:20:22;102999.69;;;15.72;34.88
78123;BME280;67376;44.802;10.332;2023-02-10T04:22:48;102995.16;;;15.72;34.44
78123;BME280;67376;44.802;10.332;2023-02-10T04:25:13;102997.59;;;15.66;35.15
78123;BME280;67376;44.802;10.332;2023-02-10T04:27:39;102993.63;;;15.70;34.84
78123;BME280;67376;44.802;10.332;2023-02-10T04:30:04;102994.88;;;15.75;34.02
78123;BME280;67376;44.802;10.332;2023-02-10T04:32:30;103006.09;;;15.71;35.58
78123;BME280;67376;44.802;10.332;2023-02-10T04:34:55;102998.16;;;15.69;34.26
78123;BME280;67376;44.802;10.332;2023-02-10T04:37:21;103002.00;;;15.67;35.54
78123;BME280;67376;44.802;10.332;2023-02-10T04:39:46;103003.84;;;15.66;34.96
78123;BME280;67376;44.802;10.332;2023-02-10T04:42:11;102996.75;;;15.65;34.39
78123;BME280;67376;44.802;10.332;2023-02-10T04:44:37;103002.69;;;15.69;34.26
78123;BME280;67376;44.802;10.332;2023-02-10T04:47:02;102999.28;;;15.67;34.50
78123;BME280;67376;44.802;10.332;2023-02-10T04:49:28;103003.84;;;15.66;35.75
78123;BME280;67376;44.802;10.332;2023-02-10T04:51:54;103003.84;;;15.66;35.19
78123;BME280;67376;44.802;10.332;2023-02-10T04:54:19;103018.56;;;15.72;34.61
78123;BME280;67376;44.802;10.332;2023-02-10T04:56:45;103009.22;;;15.66;34.71
78123;BME280;67376;44.802;10.332;2023-02-10T04:59:11;103009.06;;;15.68;35.67
78123;BME280;67376;44.802;10.332;2023-02-10T05:01:37;103003.97;;;15.65;34.54
78123;BME280;67376;44.802;10.332;2023-02-10T05:04:02;103014.59;;;15.66;34.97
78123;BME280;67376;44.802;10.332;2023-02-10T05:06:27;103006.09;;;15.71;34.68
78123;BME280;67376;44.802;10.332;2023-02-10T05:08:53;103000.84;;;15.69;34.45
78123;BME280;67376;44.802;10.332;2023-02-10T05:11:19;103011.75;;;15.68;34.96
78123;BME280;67376;44.802;10.332;2023-02-10T05:13:44;103008.63;;;15.72;35.90
78123;BME280;67376;44.802;10.332;2023-02-10T05:16:11;103012.88;;;15.75;35.48
78123;BME280;67376;44.802;10.332;2023-02-10T05:18:37;103015.56;;;15.75;35.62
78123;BME280;67376;44.802;10.332;2023-02-10T05:21:05;103013.00;;;15.73;34.92
78123;BME280;67376;44.802;10.332;2023-02-10T05:23:32;103001.25;;;15.74;34.43
78123;BME280;67376;44.802;10.332;2023-02-10T05:25:57;102993.63;;;15.70;35.54
78123;BME280;67376;44.802;10.332;2023-02-10T05:28:22;103000.00;;;15.69;34.67
78123;BME280;67376;44.802;10.332;2023-02-10T05:30:48;102995.75;;;15.66;34.84
78123;BME280;67376;44.802;10.332;2023-02-10T05:33:13;102999.00;;;15.70;35.41
78123;BME280;67376;44.802;10.332;2023-02-10T05:35:39;102999.16;;;15.68;34.74
78123;BME280;67376;44.802;10.332;2023-02-10T05:38:05;103003.25;;;15.72;34.90
78123;BME280;67376;44.802;10.332;2023-02-10T05:40:31;103000.41;;;15.74;34.60
78123;BME280;67376;44.802;10.332;2023-02-10T05:42:57;103007.63;;;15.73;34.95
78123;BME280;67376;44.802;10.332;2023-02-10T05:45:22;103004.53;;;15.68;34.66
78123;BME280;67376;44.802;10.332;2023-02-10T05:47:48;103008.63;;;15.72;35.05
78123;BME280;67376;44.802;10.332;2023-02-10T05:50:13;103017.41;;;15.74;34.14
78123;BME280;67376;44.802;10.332;2023-02-10T05:52:39;103009.78;;;15.70;34.54
78123;BME280;67376;44.802;10.332;2023-02-10T05:55:05;103018.00;;;15.68;34.99
78123;BME280;67376;44.802;10.332;2023-02-10T05:57:30;103025.38;;;15.66;34.98
78123;BME280;67376;44.802;10.332;2023-02-10T05:59:56;103040.38;;;15.69;34.59
78123;BME280;67376;44.802;10.332;2023-02-10T06:02:21;103042.22;;;15.68;34.07
78123;BME280;67376;44.802;10.332;2023-02-10T06:04:46;103041.78;;;15.73;33.90
78123;BME280;67376;44.802;10.332;2023-02-10T06:07:12;103040.94;;;15.72;33.87
78123;BME280;67376;44.802;10.332;2023-02-10T06:09:37;103037.41;;;15.72;34.95
78123;BME280;67376;44.802;10.332;2023-02-10T06:12:05;103041.78;;;15.73;34.87
78123;BME280;67376;44.802;10.332;2023-02-10T06:14:30;103039.94;;;15.73;34.57
78123;BME280;67376;44.802;10.332;2023-02-10T06:16:56;103038.94;;;15.74;34.91
78123;BME280;67376;44.802;10.332;2023-02-10T06:19:21;103041.38;;;15.68;34.44
78123;BME280;67376;44.802;10.332;2023-02-10T06:21:47;103043.09;;;15.69;34.86
78123;BME280;67376;44.802;10.332;2023-02-10T06:24:12;103050.88;;;15.72;34.62
78123;BME280;67376;44.802;10.332;2023-02-10T06:26:37;103044.38;;;15.65;34.44
78123;BME280;67376;44.802;10.332;2023-02-10T06:29:03;103053.00;;;15.68;34.82
78123;BME280;67376;44.802;10.332;2023-02-10T06:31:28;103053.00;;;15.68;34.47
78123;BME280;67376;44.802;10.332;2023-02-10T06:33:54;103059.53;;;15.66;35.50
78123;BME280;67376;44.802;10.332;2023-02-10T06:36:19;103069.31;;;15.67;34.58
78123;BME280;67376;44.802;10.332;2023-02-10T06:38:45;103061.22;;;15.67;35.57
78123;BME280;67376;44.802;10.332;2023-02-10T06:41:10;103069.75;;;15.62;35.02
78123;BME280;67376;44.802;10.332;2023-02-10T06:43:36;103079.38;;;15.65;35.52
78123;BME280;67376;44.802;10.332;2023-02-10T06:46:01;103079.78;;;15.70;35.62
78123;BME280;67376;44.802;10.332;2023-02-10T06:48:26;103077.38;;;15.67;35.89
78123;BME280;67376;44.802;10.332;2023-02-10T06:50:52;103081.19;;;15.74;34.96
78123;BME280;67376;44.802;10.332;2023-02-10T06:53:18;103087.97;;;15.78;36.17
78123;BME280;67376;44.802;10.332;2023-02-10T06:55:43;103081.34;;;14.58;25.50
78123;BME280;67376;44.802;10.332;2023-02-10T06:58:09;103098.69;;;12.81;25.00
78123;BME280;67376;44.802;10.332;2023-02-10T07:00:35;103094.34;;;12.26;25.17
78123;BME280;67376;44.802;10.332;2023-02-10T07:03:01;103100.13;;;11.99;24.62
78123;BME280;67376;44.802;10.332;2023-02-10T07:05:26;103092.16;;;12.19;26.28
78123;BME280;67376;44.802;10.332;2023-02-10T07:07:53;103095.50;;;12.55;26.11
78123;BME280;67376;44.802;10.332;2023-02-10T07:10:23;103102.50;;;12.99;27.17
78123;BME280;67376;44.802;10.332;2023-02-10T07:12:49;103101.34;;;13.24;26.13
78123;BME280;67376;44.802;10.332;2023-02-10T07:15:17;103098.47;;;13.67;28.03
78123;BME280;67376;44.802;10.332;2023-02-10T07:17:44;103105.50;;;13.99;27.87
78123;BME280;67376;44.802;10.332;2023-02-10T07:20:10;103102.50;;;14.23;27.44
78123;BME280;67376;44.802;10.332;2023-02-10T07:22:35;103102.56;;;14.42;28.92
78123;BME280;67376;44.802;10.332;2023-02-10T07:25:01;103112.91;;;14.56;28.23
78123;BME280;67376;44.802;10.332;2023-02-10T07:27:26;103117.72;;;14.72;28.98
78123;BME280;67376;44.802;10.332;2023-02-10T07:29:51;103110.38;;;14.83;29.22
78123;BME280;67376;44.802;10.332;2023-02-10T07:32:17;103119.44;;;14.92;27.88
78123;BME280;67376;44.802;10.332;2023-02-10T07:34:42;103123.81;;;15.03;29.19
78123;BME280;67376;44.802;10.332;2023-02-10T07:37:08;103118.41;;;15.22;29.03
78123;BME280;67376;44.802;10.332;2023-02-10T07:39:34;103124.22;;;15.37;29.63
78123;BME280;67376;44.802;10.332;2023-02-10T07:41:59;103126.91;;;15.46;28.59
78123;BME280;67376;44.802;10.332;2023-02-10T07:44:25;103130.31;;;15.58;29.57
78123;BME280;67376;44.802;10.332;2023-02-10T07:46:51;103139.47;;;15.65;30.06
78123;BME280;67376;44.802;10.332;2023-02-10T07:49:17;103147.53;;;15.75;28.89
78123;BME280;67376;44.802;10.332;2023-02-10T07:51:42;103142.84;;;15.77;29.40
78123;BME280;67376;44.802;10.332;2023-02-10T07:54:08;103140.72;;;15.80;29.52
78123;BME280;67376;44.802;10.332;2023-02-10T07:56:34;103147.47;;;15.94;28.92
78123;BME280;67376;44.802;10.332;2023-02-10T07:58:59;103159.72;;;16.16;29.26
78123;BME280;67376;44.802;10.332;2023-02-10T08:01:25;103166.88;;;16.25;29.91
78123;BME280;67376;44.802;10.332;2023-02-10T08:03:50;103172.78;;;16.38;29.62
78123;BME280;67376;44.802;10.332;2023-02-10T08:06:23;103171.03;;;16.47;29.60
78123;BME280;67376;44.802;10.332;2023-02-10T08:08:48;103168.03;;;16.50;29.48
78123;BME280;67376;44.802;10.332;2023-02-10T08:11:14;103171.84;;;16.57;30.47
78123;BME280;67376;44.802;10.332;2023-02-10T08:13:39;103174.69;;;16.56;29.71
78123;BME280;67376;44.802;10.332;2023-02-10T08:16:06;103172.38;;;16.61;30.73
78123;BME280;67376;44.802;10.332;2023-02-10T08:18:34;103170.69;;;16.60;30.35
78123;BME280;67376;44.802;10.332;2023-02-10T08:21:00;103169.84;;;16.59;31.01
78123;BME280;67376;44.802;10.332;2023-02-10T08:23:26;103164.75;;;16.56;31.04
78123;BME280;67376;44.802;10.332;2023-02-10T08:25:51;103171.81;;;16.67;30.99
78123;BME280;67376;44.802;10.332;2023-02-10T08:28:17;103182.03;;;16.63;31.06
78123;BME280;67376;44.802;10.332;2023-02-10T08:30:42;103188.28;;;16.64;31.09
78123;BME280;67376;44.802;10.332;2023-02-10T08:33:08;103192.97;;;16.62;31.49
78123;BME280;67376;44.802;10.332;2023-02-10T08:35:35;103195.50;;;16.63;31.81
78123;BME280;67376;44.802;10.332;2023-02-10T08:38:01;103200.34;;;16.60;31.90
78123;BME280;67376;44.802;10.332;2023-02-10T08:40:27;103207.16;;;16.64;31.80
78123;BME280;67376;44.802;10.332;2023-02-10T08:42:53;103203.91;;;16.60;32.27
78123;BME280;67376;44.802;10.332;2023-02-10T08:45:18;103206.44;;;16.62;32.09
78123;BME280;67376;44.802;10.332;2023-02-10T08:47:44;103205.31;;;16.64;31.94
78123;BME280;67376;44.802;10.332;2023-02-10T08:50:09;103211.56;;;16.65;32.35
78123;BME280;67376;44.802;10.332;2023-02-10T08:52:35;103208.16;;;16.63;32.51
78123;BME280;67376;44.802;10.332;2023-02-10T08:55:00;103203.91;;;16.60;32.38
78123;BME280;67376;44.802;10.332;2023-02-10T08:57:27;103206.44;;;16.62;33.12
78123;BME280;67376;44.802;10.332;2023-02-10T08:59:52;103204.59;;;16.62;32.64
78123;BME280;67376;44.802;10.332;2023-02-10T09:02:18;103215.53;;;16.61;33.06
78123;BME280;67376;44.802;10.332;2023-02-10T09:04:44;103206.75;;;16.59;32.91
78123;BME280;67376;44.802;10.332;2023-02-10T09:07:10;103210.03;;;16.52;33.81
78123;BME280;67376;44.802;10.332;2023-02-10T09:09:41;103221.22;;;16.58;33.38
78123;BME280;67376;44.802;10.332;2023-02-10T09:12:08;103223.53;;;16.52;33.53
78123;BME280;67376;44.802;10.332;2023-02-10T09:14:36;103216.84;;;16.57;34.31
78123;BME280;67376;44.802;10.332;2023-02-10T09:17:01;103223.63;;;16.61;34.40
78123;BME280;67376;44.802;10.332;2023-02-10T09:19:26;103221.78;;;16.61;34.03
78123;BME280;67376;44.802;10.332;2023-02-10T09:21:52;103219.22;;;16.60;34.22
78123;BME280;67376;44.802;10.332;2023-02-10T09:24:20;103219.53;;;16.57;33.77
78123;BME280;67376;44.802;10.332;2023-02-10T09:26:45;103232.00;;;16.67;34.33
78123;BME280;67376;44.802;10.332;2023-02-10T09:29:11;103229.69;;;16.72;34.38
78123;BME280;67376;44.802;10.332;2023-02-10T09:31:37;103235.25;;;16.71;33.97
78123;BME280;67376;44.802;10.332;2023-02-10T09:34:03;103230.44;;;16.65;33.61
78123;BME280;67376;44.802;10.332;2023-02-10T09:36:28;103235.69;;;16.66;33.91
78123;BME280;67376;44.802;10.332;2023-02-10T09:38:55;103237.41;;;16.67;34.94
78123;BME280;67376;44.802;10.332;2023-02-10T09:54:40;103245.09;;;16.80;35.07
78123;BME280;67376;44.802;10.332;2023-02-10T09:57:12;103242.97;;;16.83;35.31
78123;BME280;67376;44.802;10.332;2023-02-10T09:59:38;103247.06;;;16.88;35.30
78123;BME280;67376;44.802;10.332;2023-02-10T10:02:28;103241.34;;;16.91;34.92
78123;BME280;67376;44.802;10.332;2023-02-10T10:04:58;103244.19;;;16.89;34.32
78123;BME280;67376;44.802;10.332;2023-02-10T10:07:33;103253.41;;;16.96;34.84
78123;BME280;67376;44.802;10.332;2023-02-10T10:12:38;103253.69;;;16.93;35.24
78123;BME280;67376;44.802;10.332;2023-02-10T10:15:13;103254.41;;;16.95;35.28
78123;BME280;67376;44.802;10.332;2023-02-10T10:17:52;103254.41;;;16.95;34.44
78123;BME280;67376;44.802;10.332;2023-02-10T10:20:36;103254.78;;;17.00;34.97
78123;BME280;67376;44.802;10.332;2023-02-10T10:29:20;103255.63;;;17.01;34.64
78123;BME280;67376;44.802;10.332;2023-02-10T10:31:53;103245.44;;;16.95;34.71
78123;BME280;67376;44.802;10.332;2023-02-10T10:34:24;103253.53;;;16.95;35.35
78123;BME280;67376;44.802;10.332;2023-02-10T10:36:55;103244.50;;;16.86;34.65
78123;BME280;67376;44.802;10.332;2023-02-10T10:39:34;103241.34;;;16.91;35.09
78123;BME280;67376;44.802;10.332;2023-02-10T10:42:55;103235.09;;;16.90;35.19
78123;BME280;67376;44.802;10.332;2023-02-10T10:45:06;103233.25;;;16.91;34.95
78123;BME280;67376;44.802;10.332;2023-02-10T10:47:42;103230.25;;;16.94;34.77
78123;BME280;67376;44.802;10.332;2023-02-10T10:50:17;103228.16;;;16.88;35.09
78123;BME280;67376;44.802;10.332;2023-02-10T10:52:44;103221.38;;;16.83;34.90
78123;BME280;67376;44.802;10.332;2023-02-10T10:55:37;103227.91;;;16.81;34.71
78123;BME280;67376;44.802;10.332;2023-02-10T10:58:11;103224.38;;;16.80;34.85
78123;BME280;67376;44.802;10.332;2023-02-10T11:00:50;103220.22;;;16.86;35.30
78123;BME280;67376;44.802;10.332;2023-02-10T11:03:16;103204.34;;;16.83;35.32
78123;BME280;67376;44.802;10.332;2023-02-10T11:05:42;103199.19;;;16.90;35.34
78123;BME280;67376;44.802;10.332;2023-02-10T11:08:22;103206.44;;;16.89;35.09
78123;BME280;67376;44.802;10.332;2023-02-10T11:10:54;103212.06;;;16.96;35.30
78123;BME280;67376;44.802;10.332;2023-02-10T11:13:23;103208.13;;;16.90;35.73
78123;BME280;67376;44.802;10.332;2023-02-10T11:18:30;103207.59;;;16.87;35.12
78123;BME280;67376;44.802;10.332;2023-02-10T11:21:02;103206.19;;;16.82;35.47
78123;BME280;67376;44.802;10.332;2023-02-10T11:23:29;103205.72;;;16.87;34.78
78123;BME280;67376;44.802;10.332;2023-02-10T11:26:03;103202.03;;;16.88;35.51
78123;BME280;67376;44.802;10.332;2023-02-10T11:28:31;103183.59;;;16.83;35.27
78123;BME280;67376;44.802;10.332;2023-02-10T11:31:01;103184.75;;;16.81;35.90
78123;BME280;67376;44.802;10.332;2023-02-10T11:33:31;103187.84;;;16.86;35.76
78123;BME280;67376;44.802;10.332;2023-02-10T11:36:15;103179.91;;;16.84;35.26
78123;BME280;67376;44.802;10.332;2023-02-10T11:38:41;103173.97;;;16.81;35.77
78123;BME280;67376;44.802;10.332;2023-02-10T11:41:08;103179.34;;;16.81;35.08
78123;BME280;67376;44.802;10.332;2023-02-10T11:43:41;103173.81;;;16.82;34.80
78123;BME280;67376;44.802;10.332;2023-02-10T11:46:26;103172.72;;;16.75;35.62
78123;BME280;67376;44.802;10.332;2023-02-10T11:51:19;103166.72;;;16.81;35.57
78123;BME280;67376;44.802;10.332;2023-02-10T11:53:45;103160.78;;;16.78;35.24
78123;BME280;67376;44.802;10.332;2023-02-10T11:59:02;103155.22;;;16.79;35.81
78123;BME280;67376;44.802;10.332;2023-02-10T12:09:39;103139.59;;;16.83;36.11
78123;BME280;67376;44.802;10.332;2023-02-10T12:12:15;103141.03;;;16.77;35.94
78123;BME280;67376;44.802;10.332;2023-02-10T12:23:40;103131.75;;;16.72;35.91
78123;BME280;67376;44.802;10.332;2023-02-10T12:26:20;103122.97;;;16.70;35.21
78123;BME280;67376;44.802;10.332;2023-02-10T12:29:12;103112.75;;;16.64;35.37
78123;BME280;67376;44.802;10.332;2023-02-10T12:40:13;103103.81;;;16.63;36.14
78123;BME280;67376;44.802;10.332;2023-02-10T12:48:15;103086.41;;;16.75;35.09
78123;BME280;67376;44.802;10.332;2023-02-10T12:50:54;103084.03;;;16.72;34.68
78123;BME280;67376;44.802;10.332;2023-02-10T12:53:41;103090.31;;;16.63;35.07
78123;BME280;67376;44.802;10.332;2023-02-10T12:56:14;103086.34;;;16.67;35.04
78123;BME280;67376;44.802;10.332;2023-02-10T12:58:50;103083.50;;;16.69;35.86
78123;BME280;67376;44.802;10.332;2023-02-10T13:01:40;103085.03;;;16.71;35.52
78123;BME280;67376;44.802;10.332;2023-02-10T13:04:30;103095.13;;;16.69;35.55
78123;BME280;67376;44.802;10.332;2023-02-10T13:07:03;103074.59;;;16.59;35.56
78123;BME280;67376;44.802;10.332;2023-02-10T13:14:34;103075.81;;;16.74;35.29
78123;BME280;67376;44.802;10.332;2023-02-10T13:17:01;103070.56;;;16.72;36.15
78123;BME280;67376;44.802;10.332;2023-02-10T13:22:16;103066.13;;;16.54;36.76
78123;BME280;67376;44.802;10.332;2023-02-10T13:33:09;103062.78;;;16.69;36.49
78123;BME280;67376;44.802;10.332;2023-02-10T13:35:41;103062.78;;;16.69;36.36
78123;BME280;67376;44.802;10.332;2023-02-10T13:38:09;103051.28;;;16.67;35.79
78123;BME280;67376;44.802;10.332;2023-02-10T13:40:53;103064.16;;;16.73;35.68
78123;BME280;67376;44.802;10.332;2023-02-10T13:43:40;103056.06;;;16.73;36.24
78123;BME280;67376;44.802;10.332;2023-02-10T13:46:18;103054.88;;;16.76;36.09
78123;BME280;67376;44.802;10.332;2023-02-10T13:48:45;103053.22;;;16.75;36.61
78123;BME280;67376;44.802;10.332;2023-02-10T13:51:16;103051.19;;;16.77;36.29
78123;BME280;67376;44.802;10.332;2023-02-10T13:53:42;103045.94;;;16.75;36.45
78123;BME280;67376;44.802;10.332;2023-02-10T14:03:59;103050.88;;;16.80;36.40
78123;BME280;67376;44.802;10.332;2023-02-10T14:06:40;103050.88;;;16.80;36.70
78123;BME280;67376;44.802;10.332;2023-02-10T14:11:56;103052.41;;;16.82;36.35
78123;BME280;67376;44.802;10.332;2023-02-10T14:17:07;103038.22;;;16.80;36.63
78123;BME280;67376;44.802;10.332;2023-02-10T14:19:46;103043.31;;;16.83;37.32
78123;BME280;67376;44.802;10.332;2023-02-10T14:22:32;103037.91;;;16.83;36.82
78123;BME280;67376;44.802;10.332;2023-02-10T14:25:03;103035.22;;;16.83;37.46
78123;BME280;67376;44.802;10.332;2023-02-10T14:27:38;103037.22;;;16.81;37.13
78123;BME280;67376;44.802;10.332;2023-02-10T14:30:22;103028.13;;;16.82;37.42
78123;BME280;67376;44.802;10.332;2023-02-10T14:32:49;103027.13;;;16.83;36.80
78123;BME280;67376;44.802;10.332;2023-02-10T14:35:18;103019.03;;;16.83;37.69
78123;BME280;67376;44.802;10.332;2023-02-10T14:37:51;103019.19;;;16.82;37.32